createdAt,value
2023-01-30T00:03:20.396Z,1.57
2023-01-30T00:08:29.989Z,1.56
2023-01-30T00:13:40.739Z,1.53
2023-01-30T00:18:50.980Z,1.54
2023-01-30T00:24:01.226Z,1.56
2023-01-30T00:29:11.086Z,1.55
2023-01-30T00:34:20.884Z,1.56
2023-01-30T00:39:30.884Z,1.55
2023-01-30T00:44:57.857Z,1.54
2023-01-30T00:50:08.487Z,1.55
2023-01-30T00:55:19.253Z,1.56
2023-01-30T01:00:29.662Z,1.57
2023-01-30T01:05:39.676Z,1.53
2023-01-30T01:10:49.368Z,1.54
2023-01-30T01:15:59.193Z,1.53
2023-01-30T01:21:09.628Z,1.51
2023-01-30T01:26:19.637Z,1.49
2023-01-30T01:31:30.358Z,1.49
2023-01-30T01:36:53.269Z,1.48
2023-01-30T01:42:04.158Z,1.48
2023-01-30T01:47:15.165Z,1.48
2023-01-30T01:52:25.297Z,1.50
2023-01-30T01:57:41.491Z,1.52
2023-01-30T02:02:58.108Z,1.50
2023-01-30T02:08:13.592Z,1.48
2023-01-30T02:13:24.264Z,1.46
2023-01-30T02:18:36.156Z,1.45
2023-01-30T02:24:49.545Z,1.47
2023-01-30T02:31:09.307Z,1.49
2023-01-30T02:36:30.848Z,1.48
2023-01-30T02:41:50.747Z,1.48
2023-01-30T02:47:08.338Z,1.47
2023-01-30T02:52:20.565Z,1.45
2023-01-30T02:57:31.232Z,1.45
2023-01-30T03:03:17.961Z,1.45
2023-01-30T03:08:42.485Z,1.46
2023-01-30T03:14:04.635Z,1.47
2023-01-30T03:19:20.937Z,1.49
2023-01-30T03:24:31.078Z,1.50
2023-01-30T03:29:41.770Z,1.51
2023-01-30T03:34:51.498Z,1.50
2023-01-30T03:40:02.094Z,1.53
2023-01-30T03:45:14.786Z,1.51
2023-01-30T03:50:24.584Z,1.51
2023-01-30T03:55:34.605Z,1.49
2023-01-30T04:00:44.579Z,1.47
2023-01-30T04:05:54.518Z,1.48
2023-01-30T04:11:04.609Z,1.47
2023-01-30T04:16:24.429Z,1.47
2023-01-30T04:21:34.243Z,1.44
2023-01-30T04:26:44.228Z,1.42
2023-01-30T04:31:54.385Z,1.41
2023-01-30T04:37:04.991Z,1.38
2023-01-30T04:42:14.653Z,1.35
2023-01-30T04:47:24.522Z,1.29
2023-01-30T04:52:34.125Z,1.25
2023-01-30T04:57:43.768Z,1.17
2023-01-30T05:02:53.783Z,1.12
2023-01-30T05:08:03.857Z,1.08
2023-01-30T05:13:13.521Z,1.06
2023-01-30T05:18:23.078Z,1.05
2023-01-30T05:23:33.524Z,1.01
2023-01-30T05:28:43.515Z,1.00
2023-01-30T05:33:54.488Z,1.03
2023-01-30T05:39:04.270Z,1.06
2023-01-30T05:44:13.927Z,1.06
2023-01-30T05:49:24.019Z,1.04
2023-01-30T05:54:33.842Z,1.04
2023-01-30T05:59:43.631Z,1.03
2023-01-30T06:04:53.171Z,1.05
2023-01-30T15:09:00.386Z,2.75
2023-01-30T15:14:20.103Z,2.74
2023-01-30T15:19:56.119Z,2.73
2023-01-30T15:25:48.593Z,2.75
2023-01-30T15:31:10.955Z,2.77
2023-01-30T15:36:28.823Z,2.79
2023-01-30T15:41:43.277Z,2.80
2023-01-30T15:47:14.301Z,2.81
2023-01-30T15:52:32.803Z,2.80
2023-01-30T15:57:47.253Z,2.81
2023-01-30T16:02:59.067Z,2.81
2023-01-30T16:08:25.405Z,2.79
2023-01-30T16:13:37.152Z,2.75
2023-01-30T16:18:52.729Z,2.73
2023-01-30T16:24:08.154Z,2.69
2023-01-30T16:29:24.452Z,2.70
2023-01-30T16:34:37.839Z,2.72
2023-01-30T16:39:59.856Z,2.75
2023-01-30T16:46:22.341Z,2.80
2023-01-30T16:51:32.233Z,2.83
2023-01-30T16:56:49.919Z,2.85
2023-01-30T17:02:01.304Z,2.88
2023-01-30T17:07:31.583Z,2.89
2023-01-30T17:12:48.717Z,2.88
2023-01-30T17:17:58.422Z,2.87
2023-01-30T17:23:15.170Z,2.86
2023-01-30T17:28:25.631Z,2.86
2023-01-30T17:33:35.328Z,2.84
2023-01-30T17:38:45.610Z,2.80
2023-01-30T17:43:55.473Z,2.77
2023-01-30T17:49:05.695Z,2.77
2023-01-30T17:54:16.665Z,2.77
2023-01-30T17:59:26.644Z,2.74
2023-01-30T18:04:36.430Z,2.73
2023-01-30T18:09:46.552Z,2.73
2023-01-30T18:14:56.203Z,2.74
2023-01-30T18:20:06.001Z,2.75
2023-01-30T18:25:16.447Z,2.75
2023-01-30T18:30:26.575Z,2.76
2023-01-30T18:35:36.226Z,2.79
2023-01-30T18:40:45.996Z,2.81
2023-01-30T18:46:05.031Z,2.80
2023-01-30T18:51:19.236Z,2.82
2023-01-30T18:56:32.131Z,2.84
2023-01-30T19:01:44.839Z,2.84
2023-01-30T19:06:55.098Z,2.84
2023-01-30T19:12:22.516Z,2.83
2023-01-30T19:17:32.481Z,2.82
2023-01-30T19:22:42.830Z,2.78
2023-01-30T19:27:53.976Z,2.77
2023-01-30T19:33:05.141Z,2.76
2023-01-30T19:38:14.978Z,2.78
2023-01-30T19:43:24.735Z,2.73
2023-01-30T19:48:34.987Z,2.70
2023-01-30T19:53:46.115Z,2.70
2023-01-30T19:58:58.718Z,2.68
2023-01-30T20:04:09.052Z,2.69
2023-01-30T20:09:19.474Z,2.71
2023-01-30T20:14:29.585Z,2.73
2023-01-30T20:19:39.686Z,2.74
2023-01-30T20:24:49.624Z,2.76
2023-01-30T20:29:59.279Z,2.77
2023-01-30T20:35:10.357Z,2.79
2023-01-30T20:40:21.238Z,2.81
2023-01-30T20:45:31.627Z,2.82
2023-01-30T20:50:43.054Z,2.82
2023-01-30T20:55:53.828Z,2.82
2023-01-30T21:01:13.191Z,2.83
2023-01-30T21:06:37.047Z,2.83
2023-01-30T21:11:55.705Z,2.82
2023-01-30T21:17:06.054Z,2.83
2023-01-30T21:22:15.713Z,2.83
2023-01-30T21:27:25.911Z,2.85
2023-01-30T21:32:36.756Z,2.87
2023-01-30T21:38:04.077Z,2.94
2023-01-30T21:43:18.658Z,2.98
2023-01-30T21:48:29.050Z,2.98
2023-01-30T21:53:38.971Z,3.00
2023-01-30T21:58:48.845Z,3.03
2023-01-30T22:04:00.332Z,3.03
2023-01-30T22:09:10.812Z,3.04
2023-01-30T22:14:20.488Z,3.02
2023-01-30T22:19:35.854Z,3.02
2023-01-30T22:24:45.834Z,3.02
2023-01-30T22:29:55.831Z,3.03
2023-01-30T22:35:05.722Z,3.02
2023-01-30T22:40:17.071Z,3.02
2023-01-30T22:45:26.779Z,3.00
2023-01-30T22:50:37.038Z,2.94
2023-01-30T22:55:46.619Z,2.87
2023-01-30T23:00:56.318Z,2.79
2023-01-30T23:06:08.567Z,2.73
2023-01-30T23:11:22.349Z,2.70
2023-01-30T23:16:34.059Z,2.65
2023-01-30T23:21:47.516Z,2.62
2023-01-30T23:26:57.347Z,2.59
2023-01-30T23:32:09.150Z,2.57
2023-01-30T23:37:39.299Z,2.54
2023-01-30T23:42:49.053Z,2.51
2023-01-30T23:47:58.642Z,2.48
2023-01-30T23:53:10.742Z,2.44
2023-01-30T23:58:20.706Z,2.42
